LSGP weather

La Côte Airport
La Côte, Canton of Vaud, Switzerland

Public forecast

Using degrees Celsius for public forecast. Weather courtesy of forecast.io.

Closest aviation weather report (METAR) to La Côte Airport

Closest report is Geneva Cointrin International Airport, 11.8 nm (21.9 km) SSW. Retrieved 2020/01/23 07:20 UTC (1 minute ago):

LSGG 230720Z 07004KT 030V100 2200 BR BKN003 M00/M01 Q1029 TEMPO 1500 BCFG

Closest aviation forecast (TAF) to La Côte Airport

Closest forecast is Geneva Cointrin International Airport, 11.8 nm (21.9 km) SSW. Retrieved 2020/01/23 09:33 UTC (0 seconds ago):

TAF TAF LSGG 230825Z 2309/2415 VRB03KT 3000 BR BKN005 TX02/2315Z TNM03/2406Z TXM03/2406Z PROB30 TEMPO 2310/2318 6000 SCT010